Time;durP1;ratioP1;P1;durP2;ratioP2;P2;SDS_P1;SDS_P2;PMS_P1;PMS_P2;Temp;Humidity;BMP_temperature;BMP_pressure;BME280_temperature;BME280_humidity;BME280_pressure;Samples;Min_cycle;Max_cycle;Signal;HPM_P1;HPM_P2
2023/09/07 00:00:10;;;;;;;4.10;3.15;;;14.90;99.90;;;;;;5201337;28;20045;-63
2023/09/07 00:02:42;;;;;;;3.88;3.30;;;14.90;99.90;;;;;;5214550;28;20040;-60
2023/09/07 00:05:15;;;;;;;5.15;3.70;;;14.90;99.90;;;;;;5189147;28;20021;-61
2023/09/07 00:07:47;;;;;;;4.13;3.38;;;14.90;99.90;;;;;;5198539;28;20025;-62
2023/09/07 00:10:18;;;;;;;3.80;2.92;;;14.90;99.90;;;;;;5206655;28;20021;-61
2023/09/07 00:12:49;;;;;;;4.82;3.47;;;14.90;99.90;;;;;;5190737;28;20398;-62
2023/09/07 00:15:21;;;;;;;4.05;3.35;;;14.90;99.90;;;;;;5196922;28;20036;-63
2023/09/07 00:17:56;;;;;;;5.70;3.13;;;14.90;99.90;;;;;;5221526;28;20325;-61
2023/09/07 00:20:29;;;;;;;3.80;3.03;;;14.80;99.90;;;;;;5208824;28;20047;-63
2023/09/07 00:23:01;;;;;;;5.95;3.30;;;14.80;99.90;;;;;;5217755;28;20033;-62
2023/09/07 00:25:32;;;;;;;3.88;3.47;;;14.80;99.90;;;;;;5220051;28;20024;-61
2023/09/07 00:28:04;;;;;;;4.05;3.28;;;14.80;99.90;;;;;;5221609;28;20033;-62
2023/09/07 00:30:39;;;;;;;4.43;3.33;;;14.70;99.90;;;;;;5203335;28;20328;-62
2023/09/07 00:33:12;;;;;;;3.03;2.67;;;14.70;99.90;;;;;;5204031;28;20565;-63
2023/09/07 00:35:49;;;;;;;3.85;3.22;;;14.60;99.90;;;;;;5216052;28;20022;-62
2023/09/07 00:38:21;;;;;;;3.50;3.05;;;14.60;99.90;;;;;;5211464;28;20033;-63
2023/09/07 00:40:52;;;;;;;3.63;3.13;;;14.50;99.90;;;;;;5184517;28;20222;-62
2023/09/07 00:43:25;;;;;;;4.93;3.75;;;14.40;99.90;;;;;;5192597;28;20037;-61
2023/09/07 00:45:59;;;;;;;5.25;3.78;;;14.30;99.90;;;;;;5195211;28;20033;-63
2023/09/07 00:48:30;;;;;;;8.18;4.47;;;14.30;99.90;;;;;;5197028;28;20028;-61
2023/09/07 00:51:02;;;;;;;5.90;3.75;;;14.40;99.90;;;;;;5215812;28;20021;-62
2023/09/07 00:53:33;;;;;;;6.03;3.55;;;14.40;99.90;;;;;;5205222;28;20031;-61
2023/09/07 00:56:09;;;;;;;5.50;3.40;;;14.40;99.90;;;;;;5220947;28;20035;-62
2023/09/07 00:58:43;;;;;;;4.80;3.45;;;14.40;99.90;;;;;;5214678;28;20030;-62
2023/09/07 01:01:14;;;;;;;5.15;3.53;;;14.40;99.90;;;;;;5253838;22;20060;-69
2023/09/07 01:03:48;;;;;;;4.32;3.53;;;14.40;99.90;;;;;;5281025;22;20718;-61
2023/09/07 01:06:27;;;;;;;5.25;3.80;;;14.40;99.90;;;;;;5209686;28;20033;-63
2023/09/07 01:09:04;;;;;;;4.45;3.40;;;14.40;99.90;;;;;;5217000;28;20029;-62
2023/09/07 01:11:37;;;;;;;6.30;4.18;;;14.30;99.90;;;;;;5201758;28;20044;-61
2023/09/07 01:14:13;;;;;;;4.18;3.33;;;14.30;99.90;;;;;;5189302;28;20047;-61
2023/09/07 01:16:45;;;;;;;4.85;3.72;;;14.30;99.90;;;;;;5216360;28;20037;-60
2023/09/07 01:19:16;;;;;;;6.93;3.53;;;14.30;99.90;;;;;;5218507;28;20037;-61
2023/09/07 01:21:48;;;;;;;5.00;4.25;;;14.30;99.90;;;;;;5202397;28;20047;-62
2023/09/07 01:24:21;;;;;;;5.93;3.67;;;14.40;99.90;;;;;;5213812;28;20337;-61
2023/09/07 01:26:53;;;;;;;7.15;4.07;;;14.40;99.90;;;;;;5214950;28;20043;-62
2023/09/07 01:29:26;;;;;;;5.05;3.92;;;14.30;99.90;;;;;;5198859;28;20029;-61
2023/09/07 01:31:58;;;;;;;7.28;4.28;;;14.30;99.90;;;;;;5214365;28;20341;-63
2023/09/07 01:34:29;;;;;;;4.93;4.10;;;14.30;99.90;;;;;;5198750;28;20356;-61
2023/09/07 01:37:00;;;;;;;8.13;4.28;;;14.30;99.90;;;;;;5218266;28;20043;-62
2023/09/07 01:39:33;;;;;;;5.40;3.60;;;14.30;99.90;;;;;;5202662;28;20047;-61
2023/09/07 01:42:05;;;;;;;4.47;3.60;;;14.30;99.90;;;;;;5214787;28;20036;-63
2023/09/07 01:44:38;;;;;;;5.07;3.58;;;14.40;99.90;;;;;;5211019;28;20033;-61
2023/09/07 01:47:12;;;;;;;5.03;3.72;;;14.30;99.90;;;;;;5211906;28;20029;-61
2023/09/07 01:49:43;;;;;;;4.50;3.78;;;14.30;99.90;;;;;;5197145;28;20036;-62
2023/09/07 01:52:14;;;;;;;5.80;4.00;;;14.30;99.90;;;;;;5215485;28;20040;-60
2023/09/07 01:54:48;;;;;;;3.92;3.42;;;14.30;99.90;;;;;;5199846;28;20040;-62
2023/09/07 01:57:19;;;;;;;5.68;4.45;;;14.30;99.90;;;;;;5200219;28;20028;-61
2023/09/07 01:59:54;;;;;;;4.30;3.58;;;14.40;99.90;;;;;;5214606;28;20028;-61
2023/09/07 02:02:25;;;;;;;;;;;14.30;99.90;;;;;;5208942;28;20072;-62
2023/09/07 02:05:03;;;;;;;6.28;4.20;;;14.30;99.90;;;;;;5176563;28;19909;-63
2023/09/07 02:07:43;;;;;;;4.97;3.95;;;14.20;99.90;;;;;;5189483;28;20036;-62
2023/09/07 02:10:15;;;;;;;6.00;3.97;;;14.20;99.90;;;;;;5191505;28;20030;-62
2023/09/07 02:12:46;;;;;;;4.05;3.65;;;14.10;99.90;;;;;;5194575;28;20045;-62
2023/09/07 02:15:18;;;;;;;5.20;4.47;;;14.00;99.90;;;;;;5194982;28;20045;-62
2023/09/07 02:17:54;;;;;;;4.90;3.78;;;14.00;99.90;;;;;;5180153;28;20042;-60
2023/09/07 02:20:33;;;;;;;9.40;3.53;;;14.00;99.90;;;;;;5175385;28;20036;-63
2023/09/07 02:23:07;;;;;;;8.55;4.25;;;13.90;99.90;;;;;;5183016;28;20029;-62
2023/09/07 02:25:38;;;;;;;7.18;4.10;;;13.90;99.90;;;;;;5179406;28;20047;-63
2023/09/07 02:28:14;;;;;;;4.70;3.80;;;13.80;99.90;;;;;;5172960;28;20033;-62
2023/09/07 02:30:49;;;;;;;4.25;3.65;;;13.70;99.90;;;;;;5191910;28;20044;-62
2023/09/07 02:33:25;;;;;;;4.55;3.88;;;13.60;99.90;;;;;;5182916;28;20033;-62
2023/09/07 02:35:57;;;;;;;5.60;4.28;;;13.60;99.90;;;;;;5176463;28;20040;-62
2023/09/07 02:38:31;;;;;;;4.93;4.22;;;13.60;99.90;;;;;;5198671;28;20033;-61
2023/09/07 02:41:03;;;;;;;5.40;4.10;;;13.60;99.90;;;;;;5198135;28;20027;-62
2023/09/07 02:43:36;;;;;;;6.13;4.35;;;13.60;99.90;;;;;;5199009;28;20071;-62
2023/09/07 02:46:08;;;;;;;5.87;4.23;;;13.70;99.90;;;;;;5192683;28;20041;-62
2023/09/07 02:48:41;;;;;;;7.35;4.05;;;13.70;99.90;;;;;;5177568;28;20037;-62
2023/09/07 02:51:18;;;;;;;5.75;4.30;;;13.80;99.90;;;;;;5195550;28;20035;-62
2023/09/07 02:53:50;;;;;;;7.28;5.15;;;13.80;99.90;;;;;;5152576;28;20033;-64
2023/09/07 02:56:21;;;;;;;5.30;4.60;;;13.90;99.90;;;;;;5175549;28;20330;-63
2023/09/07 02:59:02;;;;;;;4.97;4.30;;;14.00;99.90;;;;;;5187572;28;20036;-62
2023/09/07 03:01:34;;;;;;;6.18;4.57;;;14.00;99.90;;;;;;5187666;28;20044;-62
2023/09/07 03:04:10;;;;;;;7.10;4.40;;;14.00;99.90;;;;;;5179969;28;20045;-61
2023/09/07 03:06:41;;;;;;;5.72;4.40;;;14.00;99.90;;;;;;5178098;28;20489;-61
2023/09/07 03:09:17;;;;;;;8.07;4.75;;;14.00;99.90;;;;;;5194230;28;20047;-60
2023/09/07 03:11:50;;;;;;;7.65;4.38;;;14.00;99.90;;;;;;5195995;28;20374;-61
2023/09/07 03:14:26;;;;;;;5.53;4.60;;;14.00;99.90;;;;;;5217243;28;20037;-62
2023/09/07 03:16:58;;;;;;;8.13;4.40;;;14.00;99.90;;;;;;5198517;28;20048;-62
2023/09/07 03:19:30;;;;;;;6.03;4.63;;;14.00;99.90;;;;;;5208036;28;20368;-61
2023/09/07 03:22:01;;;;;;;6.30;4.10;;;13.90;99.90;;;;;;5201778;28;20393;-62
2023/09/07 03:24:32;;;;;;;4.97;4.43;;;13.90;99.90;;;;;;5218422;28;20203;-62
2023/09/07 03:27:04;;;;;;;5.63;4.68;;;13.90;99.90;;;;;;5209974;28;20041;-63
2023/09/07 03:29:38;;;;;;;9.68;5.07;;;13.80;99.90;;;;;;5198091;28;20021;-63
2023/09/07 03:32:12;;;;;;;8.03;4.37;;;13.80;99.90;;;;;;5203750;28;20602;-64
2023/09/07 03:34:45;;;;;;;8.93;5.43;;;13.70;99.90;;;;;;5177069;28;20270;-61
2023/09/07 03:37:18;;;;;;;6.68;4.65;;;13.70;99.90;;;;;;5197479;28;20461;-62
2023/09/07 03:39:53;;;;;;;6.10;5.00;;;13.70;99.90;;;;;;5195196;28;20029;-66
2023/09/07 03:42:26;;;;;;;;;;;13.60;99.90;;;;;;5178378;28;20029;-61
2023/09/07 03:45:00;;;;;;;6.32;5.22;;;13.60;99.90;;;;;;5196075;28;19916;-63
2023/09/07 03:47:31;;;;;;;7.30;5.15;;;13.70;99.90;;;;;;5211445;28;20025;-63
2023/09/07 03:50:08;;;;;;;7.28;5.25;;;13.70;99.90;;;;;;5215919;28;20033;-64
2023/09/07 03:52:39;;;;;;;7.10;4.55;;;13.70;99.90;;;;;;5197133;28;20049;-65
2023/09/07 03:55:13;;;;;;;8.50;4.95;;;13.70;99.90;;;;;;5194346;28;20447;-63
2023/09/07 03:57:50;;;;;;;7.35;4.72;;;13.70;99.90;;;;;;5203847;28;20039;-65
2023/09/07 04:00:23;;;;;;;8.52;5.28;;;13.70;99.90;;;;;;5207654;28;20539;-62
2023/09/07 04:02:56;;;;;;;6.05;4.18;;;13.60;99.90;;;;;;5204165;28;20045;-62
2023/09/07 04:05:27;;;;;;;6.45;4.95;;;13.60;99.90;;;;;;5205492;28;20040;-63
2023/09/07 04:08:00;;;;;;;6.05;4.53;;;13.60;99.90;;;;;;5185935;28;20680;-64
2023/09/07 04:10:31;;;;;;;9.88;5.30;;;13.50;99.90;;;;;;5212441;28;20039;-63
2023/09/07 04:13:03;;;;;;;7.57;4.78;;;13.50;99.90;;;;;;5227229;28;20169;-64
2023/09/07 04:15:41;;;;;;;7.85;5.07;;;13.50;99.90;;;;;;5220086;28;20139;-64
2023/09/07 04:18:16;;;;;;;6.07;4.63;;;13.50;99.90;;;;;;5182731;28;20036;-64
2023/09/07 04:20:47;;;;;;;6.03;4.50;;;13.50;99.90;;;;;;5213685;28;20025;-65
2023/09/07 04:23:24;;;;;;;6.40;4.60;;;13.50;99.90;;;;;;5196722;28;20044;-64
2023/09/07 04:26:07;;;;;;;8.20;5.70;;;13.50;99.90;;;;;;5183526;28;20047;-64
2023/09/07 04:28:42;;;;;;;8.45;5.47;;;13.50;99.90;;;;;;5183166;28;20116;-64
2023/09/07 04:31:13;;;;;;;10.32;5.70;;;13.60;99.90;;;;;;5214451;28;20037;-63
2023/09/07 04:33:47;;;;;;;6.95;5.28;;;13.70;99.90;;;;;;5201024;28;20036;-64
2023/09/07 04:36:20;;;;;;;7.30;4.80;;;13.60;99.90;;;;;;5185710;28;20533;-64
2023/09/07 04:38:53;;;;;;;6.18;4.45;;;13.70;99.90;;;;;;5181163;28;20044;-63
2023/09/07 04:41:24;;;;;;;8.52;5.28;;;13.70;99.90;;;;;;5189362;28;20108;-64
2023/09/07 04:43:57;;;;;;;6.82;5.25;;;13.80;99.90;;;;;;5220388;28;20257;-64
2023/09/07 04:46:28;;;;;;;8.70;5.25;;;13.80;99.90;;;;;;5210770;28;20036;-64
2023/09/07 04:49:00;;;;;;;7.90;5.35;;;13.90;99.90;;;;;;5218774;28;20037;-62
2023/09/07 04:51:33;;;;;;;6.68;5.30;;;13.90;99.90;;;;;;5200886;28;20024;-64
2023/09/07 04:54:05;;;;;;;8.32;5.70;;;14.10;99.90;;;;;;5189166;28;20044;-64
2023/09/07 04:56:36;;;;;;;9.05;5.20;;;14.20;99.90;;;;;;5212980;28;20032;-62
2023/09/07 04:59:07;;;;;;;8.50;5.45;;;14.30;99.90;;;;;;5203480;28;20100;-64
2023/09/07 05:01:41;;;;;;;6.05;4.82;;;14.50;99.90;;;;;;5186736;28;20041;-65
2023/09/07 05:04:15;;;;;;;6.93;4.82;;;14.70;99.90;;;;;;5188897;28;20060;-64
2023/09/07 05:06:49;;;;;;;6.97;5.03;;;14.90;99.90;;;;;;5205277;28;20263;-64
2023/09/07 05:09:20;;;;;;;6.78;5.20;;;15.10;99.90;;;;;;5185567;28;20043;-66
2023/09/07 05:11:57;;;;;;;8.40;6.07;;;15.20;99.90;;;;;;5178905;28;20047;-64
2023/09/07 05:14:33;;;;;;;6.53;5.07;;;15.40;99.90;;;;;;5203770;28;20048;-64
2023/09/07 05:17:05;;;;;;;5.32;4.45;;;15.60;75.10;;;;;;5200886;28;20398;-64
2023/09/07 05:19:36;;;;;;;7.20;4.80;;;15.70;2.00;;;;;;5170958;28;20032;-65
2023/09/07 05:22:11;;;;;;;8.05;5.00;;;16.00;1.00;;;;;;5202356;28;20040;-65
2023/09/07 05:24:47;;;;;;;6.22;4.82;;;16.00;1.00;;;;;;5201917;28;20052;-65
2023/09/07 05:27:18;;;;;;;7.28;5.68;;;16.20;1.00;;;;;;5199861;28;20226;-62
2023/09/07 05:29:52;;;;;;;8.23;4.90;;;16.30;1.00;;;;;;5220638;28;20233;-62
2023/09/07 05:32:23;;;;;;;6.75;5.22;;;16.40;1.00;;;;;;5207209;28;20511;-64
2023/09/07 05:34:57;;;;;;;9.77;5.00;;;16.50;1.00;;;;;;5223098;28;20024;-65
2023/09/07 05:37:28;;;;;;;8.68;4.80;;;16.70;1.00;;;;;;5167720;28;20033;-64
2023/09/07 05:39:59;;;;;;;5.10;4.47;;;16.70;1.00;;;;;;5200184;28;20284;-63
2023/09/07 05:42:30;;;;;;;7.00;5.22;;;16.90;1.00;;;;;;5200015;28;20040;-64
2023/09/07 05:45:03;;;;;;;6.63;5.40;;;17.00;1.00;;;;;;5208234;28;20029;-64
2023/09/07 05:47:34;;;;;;;7.28;4.95;;;17.10;1.00;;;;;;5185654;28;20196;-65
2023/09/07 05:50:08;;;;;;;6.85;4.80;;;17.30;1.00;;;;;;5203542;28;20036;-68
2023/09/07 05:52:40;;;;;;;7.30;5.47;;;17.60;1.00;;;;;;5170798;28;20036;-64
2023/09/07 05:55:11;;;;;;;8.73;5.53;;;17.90;99.90;;;;;;5220967;28;20027;-66
2023/09/07 05:57:45;;;;;;;9.20;5.63;;;18.30;79.30;;;;;;5203295;28;20490;-61
2023/09/07 06:00:19;;;;;;;7.88;5.47;;;18.50;8.60;;;;;;5219656;28;20024;-65
2023/09/07 06:02:56;;;;;;;7.20;5.65;;;18.60;1.00;;;;;;5194441;28;20045;-65
2023/09/07 06:05:27;;;;;;;6.50;5.07;;;18.80;1.00;;;;;;5187561;28;20022;-63
2023/09/07 06:07:58;;;;;;;7.88;4.88;;;19.00;1.00;;;;;;5182130;28;20344;-64
2023/09/07 06:10:35;;;;;;;7.65;5.50;;;19.10;1.00;;;;;;5202869;28;20048;-62
2023/09/07 06:13:06;;;;;;;8.85;5.18;;;19.40;1.00;;;;;;5201667;28;20542;-64
2023/09/07 06:15:41;;;;;;;5.45;4.60;;;19.60;1.00;;;;;;5185415;28;20241;-65
2023/09/07 06:18:12;;;;;;;8.07;5.20;;;19.80;1.00;;;;;;5219483;28;20033;-66
2023/09/07 06:20:43;;;;;;;6.72;5.32;;;20.10;1.00;;;;;;5233316;28;20033;-65
2023/09/07 06:23:17;;;;;;;7.10;5.53;;;20.30;99.90;;;;;;5213764;28;20037;-64
2023/09/07 06:25:51;;;;;;;6.97;5.13;;;20.50;1.00;;;;;;5184806;28;20261;-62
2023/09/07 06:28:25;;;;;;;7.53;5.13;;;20.60;1.00;;;;;;5206008;28;20062;-61
2023/09/07 06:31:02;;;;;;;6.38;4.53;;;20.80;1.00;;;;;;5218924;28;20036;-64
2023/09/07 06:33:36;;;;;;;6.03;4.80;;;20.90;1.00;;;;;;5171036;28;20033;-61
2023/09/07 06:36:10;;;;;;;4.57;3.77;;;21.20;1.00;;;;;;5195654;28;20044;-63
2023/09/07 06:38:41;;;;;;;5.05;3.75;;;21.40;1.00;;;;;;5200780;28;20042;-64
2023/09/07 06:41:14;;;;;;;4.38;3.85;;;21.60;1.00;;;;;;5219779;28;20029;-62
2023/09/07 06:43:48;;;;;;;8.48;4.18;;;21.60;1.00;;;;;;5203041;28;20429;-62
2023/09/07 06:46:19;;;;;;;5.85;4.05;;;21.60;1.00;;;;;;5175244;28;20041;-63
2023/09/07 06:48:53;;;;;;;4.78;3.67;;;21.60;1.00;;;;;;5199218;28;20045;-65
2023/09/07 06:51:24;;;;;;;6.47;4.05;;;21.60;1.00;;;;;;5181673;28;20043;-64
2023/09/07 06:53:55;;;;;;;4.78;3.65;;;21.70;1.00;;;;;;5219868;28;20128;-63
2023/09/07 06:56:26;;;;;;;5.15;4.13;;;21.70;1.00;;;;;;5237194;28;20252;-64
2023/09/07 06:58:57;;;;;;;3.88;3.47;;;21.80;1.00;;;;;;5204456;28;20336;-66
2023/09/07 07:01:28;;;;;;;5.90;4.43;;;21.90;1.00;;;;;;5205424;28;20284;-63
2023/09/07 07:04:00;;;;;;;9.15;3.85;;;22.00;1.00;;;;;;5225925;28;20033;-63
2023/09/07 07:06:33;;;;;;;5.40;4.00;;;21.90;99.90;;;;;;5200525;28;20029;-63
2023/09/07 07:09:05;;;;;;;5.57;4.17;;;22.00;99.90;;;;;;5217658;28;20021;-62
2023/09/07 07:11:39;;;;;;;5.57;4.30;;;22.10;43.10;;;;;;5194928;28;20021;-64
2023/09/07 07:14:12;;;;;;;5.18;3.50;;;22.20;1.00;;;;;;5184238;28;20225;-64
2023/09/07 07:16:48;;;;;;;4.43;3.67;;;22.40;1.00;;;;;;5197906;28;20123;-64
2023/09/07 07:19:20;;;;;;;5.65;4.20;;;22.60;1.00;;;;;;5185879;28;20248;-62
2023/09/07 07:21:51;;;;;;;4.15;3.75;;;22.40;1.00;;;;;;5200280;28;20031;-62
2023/09/07 07:24:24;;;;;;;5.43;4.75;;;22.40;1.00;;;;;;5208597;28;20318;-63
2023/09/07 07:26:59;;;;;;;6.20;3.73;;;22.60;1.00;;;;;;5184582;28;20039;-63
2023/09/07 07:29:35;;;;;;;7.15;3.70;;;22.50;1.00;;;;;;5208530;28;20028;-65
2023/09/07 07:32:06;;;;;;;4.82;3.70;;;23.00;1.00;;;;;;5197962;28;20329;-63
2023/09/07 07:34:37;;;;;;;4.45;3.88;;;23.40;1.00;;;;;;5218570;28;20036;-65
2023/09/07 07:37:11;;;;;;;8.82;3.72;;;23.80;1.00;;;;;;5219507;28;20424;-63
2023/09/07 07:39:42;;;;;;;4.93;3.63;;;23.50;99.90;;;;;;5186871;28;20020;-62
2023/09/07 07:42:18;;;;;;;4.32;3.75;;;23.50;95.80;;;;;;5215704;28;20475;-63
2023/09/07 07:44:49;;;;;;;4.85;3.63;;;23.80;1.00;;;;;;5218029;28;20211;-62
2023/09/07 07:47:26;;;;;;;7.05;4.18;;;24.10;99.90;;;;;;5215821;28;20029;-66
2023/09/07 07:50:03;;;;;;;4.22;3.50;;;23.90;99.90;;;;;;5200779;28;20521;-62
2023/09/07 07:52:36;;;;;;;6.82;3.70;;;24.10;99.90;;;;;;5184583;28;20467;-64
2023/09/07 07:55:08;;;;;;;5.37;3.83;;;24.30;1.00;;;;;;5190065;28;20017;-64
2023/09/07 07:57:39;;;;;;;3.80;3.08;;;24.50;99.90;;;;;;5183284;28;20266;-63
2023/09/07 08:00:11;;;;;;;7.97;3.75;;;24.60;99.90;;;;;;5191594;28;20040;-64
2023/09/07 08:02:47;;;;;;;5.07;3.75;;;24.70;99.90;;;;;;5188445;28;20316;-64
2023/09/07 08:05:21;;;;;;;4.88;3.63;;;24.70;99.90;;;;;;5193224;28;20041;-62
2023/09/07 08:07:57;;;;;;;7.00;3.90;;;24.80;1.00;;;;;;5190548;28;20493;-63
2023/09/07 08:10:34;;;;;;;5.35;3.75;;;24.90;99.90;;;;;;5206392;28;20024;-61
2023/09/07 08:13:05;;;;;;;5.55;4.03;;;25.00;99.90;;;;;;5217618;28;20032;-64
2023/09/07 08:15:36;;;;;;;6.05;3.65;;;25.30;47.00;;;;;;5223509;28;20033;-63
2023/09/07 08:18:08;;;;;;;5.90;4.00;;;25.40;1.00;;;;;;5219689;28;20032;-64
2023/09/07 08:20:41;;;;;;;5.18;3.60;;;25.40;1.00;;;;;;5191793;28;20032;-62
2023/09/07 08:23:14;;;;;;;6.65;3.72;;;25.50;1.00;;;;;;5224702;28;20021;-63
2023/09/07 08:25:48;;;;;;;7.07;4.03;;;25.30;1.00;;;;;;5187645;28;20107;-64
2023/09/07 08:28:21;;;;;;;5.27;4.23;;;25.40;1.00;;;;;;5178082;28;20262;-63
2023/09/07 08:30:54;;;;;;;6.45;3.65;;;25.70;1.00;;;;;;5169662;28;20037;-65
2023/09/07 08:33:35;;;;;;;4.97;4.00;;;26.00;1.00;;;;;;5211493;28;20028;-64
2023/09/07 08:36:08;;;;;;;4.45;3.58;;;25.50;99.90;;;;;;5191865;28;20032;-62
2023/09/07 08:38:39;;;;;;;5.45;3.95;;;25.60;99.90;;;;;;5187550;28;20037;-65
2023/09/07 08:41:14;;;;;;;6.57;3.90;;;25.70;99.90;;;;;;5236684;28;20020;-61
2023/09/07 08:43:46;;;;;;;5.93;4.60;;;25.50;99.90;;;;;;5202222;28;20432;-63
2023/09/07 08:46:21;;;;;;;6.35;3.60;;;25.30;96.30;;;;;;5194050;28;20029;-62
2023/09/07 08:48:55;;;;;;;5.07;4.35;;;25.50;67.00;;;;;;5222167;28;20031;-62
2023/09/07 08:51:28;;;;;;;5.70;4.10;;;25.60;60.90;;;;;;5187109;28;20029;-63
2023/09/07 08:54:00;;;;;;;5.10;3.53;;;25.70;4.30;;;;;;5188890;28;20051;-63
2023/09/07 08:56:37;;;;;;;8.25;4.18;;;25.70;99.90;;;;;;5223535;28;20029;-62
2023/09/07 08:59:10;;;;;;;6.72;3.72;;;25.90;99.90;;;;;;5189626;28;20029;-62
2023/09/07 09:01:42;;;;;;;3.80;3.27;;;25.90;1.00;;;;;;5203347;28;20313;-63
2023/09/07 09:04:16;;;;;;;3.90;3.40;;;26.40;1.00;;;;;;5220556;28;20277;-63
2023/09/07 09:06:47;;;;;;;;;;;26.50;1.00;;;;;;5187673;28;20033;-64
2023/09/07 09:09:26;;;;;;;6.90;3.30;;;26.90;1.00;;;;;;5202755;28;19947;-64
2023/09/07 09:12:26;;;;;;;3.95;3.30;;;27.00;1.00;;;;;;5227303;28;20033;-61
2023/09/07 09:15:03;;;;;;;4.30;3.38;;;26.90;1.00;;;;;;5135615;28;20430;-61
2023/09/07 09:17:34;;;;;;;6.53;3.83;;;26.90;99.90;;;;;;5118874;28;20038;-64
2023/09/07 09:20:20;;;;;;;4.93;3.63;;;27.20;1.00;;;;;;5121696;28;20049;-63
2023/09/07 09:22:58;;;;;;;5.38;3.35;;;27.00;99.90;;;;;;5120782;28;20019;-62
2023/09/07 09:25:31;;;;;;;7.53;3.55;;;27.40;99.90;;;;;;5127227;28;20034;-62
2023/09/07 09:28:03;;;;;;;5.45;3.55;;;27.80;99.90;;;;;;5113340;28;20041;-65
2023/09/07 09:30:34;;;;;;;3.85;3.22;;;28.00;99.90;;;;;;5137429;28;20130;-61
2023/09/07 09:33:07;;;;;;;3.65;3.33;;;28.10;99.90;;;;;;5156704;28;20246;-63
2023/09/07 09:35:38;;;;;;;4.85;3.20;;;28.00;89.40;;;;;;5111727;28;20035;-62
2023/09/07 09:38:10;;;;;;;3.42;3.08;;;27.80;18.20;;;;;;5104397;28;20305;-61
2023/09/07 09:40:46;;;;;;;4.10;2.88;;;27.80;16.90;;;;;;5155685;28;20034;-63
2023/09/07 09:43:20;;;;;;;4.90;2.97;;;28.20;1.00;;;;;;5112250;28;20039;-62
2023/09/07 09:45:52;;;;;;;5.70;3.28;;;28.00;1.00;;;;;;5093239;29;20268;-63
2023/09/07 09:48:27;;;;;;;5.10;3.10;;;28.20;1.00;;;;;;5134671;28;20034;-62
2023/09/07 09:51:00;;;;;;;4.70;3.00;;;28.50;1.00;;;;;;5157368;28;20112;-63
2023/09/07 09:53:34;;;;;;;5.72;2.80;;;28.30;1.00;;;;;;5198775;28;20048;-62
2023/09/07 09:56:08;;;;;;;3.55;3.00;;;28.40;1.00;;;;;;5202799;28;20036;-63
2023/09/07 09:58:40;;;;;;;3.90;3.13;;;29.00;1.00;;;;;;5184164;28;20047;-62
2023/09/07 10:01:16;;;;;;;3.67;2.65;;;29.20;1.00;;;;;;5183256;28;20313;-60
2023/09/07 10:03:49;;;;;;;4.07;2.75;;;29.00;1.00;;;;;;5219160;28;20279;-62
2023/09/07 10:06:29;;;;;;;3.47;2.65;;;29.80;1.00;;;;;;5202959;28;20041;-62
2023/09/07 10:09:10;;;;;;;3.70;2.58;;;29.80;1.00;;;;;;5173451;28;20040;-62
2023/09/07 10:11:44;;;;;;;3.88;2.22;;;29.20;1.00;;;;;;5181492;28;20037;-62
2023/09/07 10:14:15;;;;;;;5.25;2.63;;;30.00;1.00;;;;;;5179635;28;20217;-62
2023/09/07 10:16:52;;;;;;;4.55;2.38;;;30.10;1.00;;;;;;5194397;28;20055;-63
2023/09/07 10:19:26;;;;;;;2.63;2.20;;;31.30;1.00;;;;;;5220640;28;20127;-60
2023/09/07 10:21:58;;;;;;;4.70;2.70;;;32.40;1.00;;;;;;5219894;28;20282;-61
2023/09/07 10:24:30;;;;;;;3.65;2.75;;;33.10;1.00;;;;;;5217358;28;20044;-61
2023/09/07 10:27:10;;;;;;;3.72;2.65;;;32.60;1.00;;;;;;5210545;28;20025;-65
2023/09/07 10:29:53;;;;;;;4.97;2.47;;;32.60;99.90;;;;;;5181483;28;20032;-62
2023/09/07 10:32:25;;;;;;;2.92;2.33;;;32.50;99.90;;;;;;5208691;28;20013;-61
2023/09/07 10:34:59;;;;;;;3.70;2.35;;;32.90;99.90;;;;;;5221881;28;20035;-61
2023/09/07 10:37:30;;;;;;;2.40;2.10;;;33.70;99.90;;;;;;5212030;28;20027;-63
2023/09/07 10:40:03;;;;;;;2.30;2.10;;;33.40;99.90;;;;;;5223447;28;20177;-60
2023/09/07 10:42:34;;;;;;;2.20;1.80;;;33.90;99.90;;;;;;5183014;28;20029;-63
2023/09/07 10:45:16;;;;;;;2.88;2.00;;;34.00;99.90;;;;;;5203164;28;20049;-64
2023/09/07 10:47:49;;;;;;;3.40;2.33;;;34.40;99.90;;;;;;5202560;28;20028;-63
2023/09/07 10:50:22;;;;;;;2.00;1.83;;;34.50;81.70;;;;;;5205771;28;20038;-64
2023/09/07 10:52:54;;;;;;;2.63;2.00;;;34.40;56.30;;;;;;5202936;28;20024;-64
2023/09/07 10:55:28;;;;;;;2.28;1.98;;;33.60;40.60;;;;;;5188653;28;20037;-63
2023/09/07 10:57:59;;;;;;;;;;;34.00;76.70;;;;;;5207159;28;20132;-62
2023/09/07 11:00:35;;;;;;;2.70;1.98;;;34.10;22.90;;;;;;5204728;28;19991;-63
2023/09/07 11:03:09;;;;;;;2.58;1.95;;;34.70;1.00;;;;;;5216680;28;20049;-63
2023/09/07 11:05:43;;;;;;;3.00;1.88;;;34.60;1.00;;;;;;5212697;28;20045;-62
2023/09/07 11:08:14;;;;;;;3.22;2.05;;;35.30;1.00;;;;;;5185999;28;20033;-60
2023/09/07 11:10:46;;;;;;;3.17;2.40;;;35.70;1.00;;;;;;5220798;28;20032;-64
2023/09/07 11:13:17;;;;;;;4.72;2.22;;;35.10;1.00;;;;;;5227523;28;20031;-62
2023/09/07 11:15:48;;;;;;;5.00;3.03;;;35.30;1.00;;;;;;5182369;28;20286;-61
2023/09/07 11:18:23;;;;;;;2.33;2.00;;;35.90;1.00;;;;;;5220497;28;20037;-63
2023/09/07 11:20:59;;;;;;;3.85;2.30;;;35.40;1.00;;;;;;5184016;28;20033;-62
2023/09/07 11:23:39;;;;;;;3.20;2.22;;;35.40;1.00;;;;;;5202712;28;20036;-63
2023/09/07 11:26:11;;;;;;;2.65;2.00;;;35.60;1.00;;;;;;5233522;28;20050;-63
2023/09/07 11:28:46;;;;;;;3.70;2.10;;;36.10;1.00;;;;;;5219566;28;20054;-61
2023/09/07 11:31:22;;;;;;;2.83;2.05;;;36.20;1.00;;;;;;5180572;28;20049;-63
2023/09/07 11:33:56;;;;;;;2.47;2.15;;;36.10;1.00;;;;;;5188575;28;20065;-66
2023/09/07 11:36:27;;;;;;;2.20;2.00;;;35.90;1.00;;;;;;5216382;28;20032;-62
2023/09/07 11:39:05;;;;;;;4.95;2.50;;;36.00;1.00;;;;;;5222552;28;20029;-64
2023/09/07 11:41:43;;;;;;;4.03;2.15;;;36.20;1.00;;;;;;5195632;28;20042;-62
2023/09/07 11:44:14;;;;;;;7.00;2.20;;;36.80;1.00;;;;;;5209184;28;20336;-63
2023/09/07 11:46:48;;;;;;;3.05;2.75;;;37.40;1.00;;;;;;5197447;28;20343;-63
2023/09/07 11:49:21;;;;;;;;;;;37.90;1.00;;;;;;5189615;28;20025;-62
2023/09/07 11:51:52;;;;;;;4.53;2.42;;;36.00;1.00;;;;;;5186814;28;19909;-64
2023/09/07 11:54:23;;;;;;;2.60;2.20;;;34.90;1.00;;;;;;5205071;28;20225;-63
2023/09/07 11:56:54;;;;;;;3.63;2.35;;;35.10;1.00;;;;;;5205460;28;20063;-62
2023/09/07 11:59:28;;;;;;;4.38;2.22;;;36.00;1.00;;;;;;5189249;28;20486;-63
2023/09/07 12:02:04;;;;;;;2.92;2.67;;;36.10;1.00;;;;;;5207694;28;20039;-62
2023/09/07 12:04:37;;;;;;;3.88;2.53;;;35.20;1.00;;;;;;5223890;28;20356;-60
2023/09/07 12:07:08;;;;;;;3.75;2.72;;;35.00;1.00;;;;;;5224977;28;20033;-62
2023/09/07 12:09:42;;;;;;;2.88;2.40;;;35.50;1.00;;;;;;5206002;28;20031;-64
2023/09/07 12:12:16;;;;;;;2.67;2.10;;;35.90;1.00;;;;;;5193484;28;20035;-60
2023/09/07 12:14:47;;;;;;;;;;;36.40;1.00;;;;;;5188299;28;20206;-62
2023/09/07 12:17:19;;;;;;;3.28;2.40;;;35.50;1.00;;;;;;5219698;28;19915;-61
2023/09/07 12:19:53;;;;;;;4.32;2.17;;;35.20;1.00;;;;;;5188730;28;20024;-63
2023/09/07 12:22:24;;;;;;;3.08;2.30;;;36.20;1.00;;;;;;5188016;28;20222;-61
2023/09/07 12:24:58;;;;;;;3.33;2.42;;;36.00;1.00;;;;;;5186988;28;20076;-62
2023/09/07 12:27:29;;;;;;;2.55;2.03;;;35.70;1.00;;;;;;5205487;28;20029;-63
2023/09/07 12:30:12;;;;;;;2.97;2.08;;;36.10;1.00;;;;;;5220965;28;20044;-61
2023/09/07 12:32:46;;;;;;;2.97;2.30;;;36.50;1.00;;;;;;5222670;28;20029;-66
2023/09/07 12:35:17;;;;;;;2.90;2.20;;;37.10;1.00;;;;;;5195517;28;20036;-60
2023/09/07 12:37:50;;;;;;;2.78;2.25;;;36.60;1.00;;;;;;5188858;28;20211;-62
2023/09/07 12:40:22;;;;;;;2.70;2.40;;;36.60;1.00;;;;;;5211073;28;20301;-65
2023/09/07 12:42:53;;;;;;;6.10;2.00;;;35.60;1.00;;;;;;5202725;28;20025;-63
2023/09/07 12:45:26;;;;;;;2.95;2.08;;;36.00;1.00;;;;;;5202127;28;20356;-62
2023/09/07 12:47:59;;;;;;;4.47;2.33;;;36.50;1.00;;;;;;5205589;28;20047;-65
2023/09/07 12:50:32;;;;;;;2.83;2.22;;;37.20;1.00;;;;;;5205894;28;20260;-63
2023/09/07 12:53:03;;;;;;;3.42;2.55;;;36.80;1.00;;;;;;5217670;28;20035;-65
2023/09/07 12:55:35;;;;;;;3.50;2.30;;;36.10;1.00;;;;;;5186437;28;20031;-65
2023/09/07 12:58:06;;;;;;;2.92;2.40;;;35.40;1.00;;;;;;5209713;28;20271;-63
2023/09/07 13:00:37;;;;;;;3.20;2.17;;;36.10;1.00;;;;;;5187824;28;20043;-65
2023/09/07 13:03:13;;;;;;;2.58;2.20;;;36.10;1.00;;;;;;5224334;28;20046;-60
2023/09/07 13:05:50;;;;;;;3.63;2.30;;;35.50;1.00;;;;;;5188164;28;20041;-63
2023/09/07 13:08:24;;;;;;;3.10;2.20;;;35.40;1.00;;;;;;5224317;28;20229;-65
2023/09/07 13:10:57;;;;;;;4.75;1.95;;;35.60;1.00;;;;;;5185019;28;20044;-62
2023/09/07 13:13:30;;;;;;;2.17;1.95;;;35.60;1.00;;;;;;5200747;28;20314;-62
2023/09/07 13:16:04;;;;;;;2.08;1.88;;;35.90;1.00;;;;;;5176896;28;20032;-62
2023/09/07 13:18:35;;;;;;;2.42;2.10;;;36.00;1.00;;;;;;5188262;28;20037;-63
2023/09/07 13:21:11;;;;;;;4.05;1.92;;;35.60;1.00;;;;;;5205280;28;20415;-64
2023/09/07 13:23:43;;;;;;;4.15;2.72;;;35.20;1.00;;;;;;5188009;28;20418;-63